Huvudsida
METAR-TAF:

METAR-TAF

Flygplatser :

Wattay International Airport

Vientiane, Laos

latitud: 17-57N, longitud: 102-34E, höjd: 171 m

Aktuellt väderrapport

Denna rapport gjordes för 18 minuter sedan, klockan 09:30 UTC
Vind 4 kt från syd
Temperatur 34°C
Fuktighet 53%
Tryck 1005 hPa
Sikt 10 km eller mer
Spridda moln på en höjd av 1600 ft
Få moln på en höjd av 20000 ft

METAR: VLVT 250930Z 18004KT 9999 SCT016 FEW200 34/23 Q1005 NOSIG

Tid: 16:48 (09:48 UTC)

Väderprognos

Denna rapport gjordes för 4 timmar och 48 minuter sedan, klockan 05:00 UTC
Prognos gäller från 25 kl. 06 UTC till 26 kl. 06 UTC
Vind 6 kt från nord/nordväst
Sikt: 8000 m
Spridda moln på en höjd av 1600 ft
Få moln på en höjd av 20000 ft
Temporärt
från 25 kl. 14 UTC till 25 kl. 20 UTC
Sikt: 4000 m
Få moln på en höjd av 5000 ft
Få moln på en höjd av 20000 ft
fuktdis

TAF: VLVT 250500Z 2506/2606 34006KT 8000 SCT016 FEW200 TEMPO 2514/2520 4000 BR FEW050 FEW200

Aktuella väderrapporter och prognoser från 4000 flygplatser (METAR- och TAF-rapporter).

De tillgängliga stationerna syns som gula och röda prickar på kartan.

För musen över prickarna för att se namnen på stationerna.

Klicka sedan för att få väderrapporter och prognoser.

För att ändra kartan: Klicka på de gröna knapparna med ett svart kors på för att zooma in; den gröna knappen med ett streck på för att zooma ut; eller på de gröna pilarna för angränsande kartor.


METAR-TAF: